Berlin — 9HA2295 — position and weather

sailwx.info

Track history (hours):
 
Tides and Currents Weather Stations Pressure Air Temp Water Temp Dewpoint Dewpoint Depression Visibility Wind Speed Wind Dir Waves Ship Positions

Berlin

Last reported at 2017-Jan-18 05:33 UTC. Time now 2017-Jan-21 15:34 UTC.
Position N 20°38' W 086°57'.

Length 140 m; draft 5 m.

Type: Ship. MMSI: 248277000.

Date/timePositionNaut miles runAvg speedWind from/ knotsBaromVisibWave heightAir tempDewpointWater temp
2017-Jan-18 05:33N 20°38' W 086°57'9 9.0
2017-Jan-18 04:31N 20°29' W 086°59'0 0.0
2017-Jan-18 03:31N 20°29' W 086°59'0 0.0
2017-Jan-18 02:31N 20°29' W 086°59'0 0.0
2017-Jan-18 01:28N 20°29' W 086°59'0 0.0
2017-Jan-18 00:31N 20°29' W 086°59'0 0.0
2017-Jan-17 23:31N 20°29' W 086°59'0 0.0
2017-Jan-17 22:31N 20°29' W 086°59'0 0.0
2017-Jan-17 21:31N 20°29' W 086°59'0 0.0
2017-Jan-17 20:31N 20°29' W 086°59'0 0.0
2017-Jan-17 19:31N 20°29' W 086°59'0 0.0
2017-Jan-17 18:28N 20°29' W 086°59'0 0.0
2017-Jan-17 17:25N 20°29' W 086°59'0 0.0
2017-Jan-17 16:28N 20°29' W 086°59'0 0.0
2017-Jan-17 15:31N 20°29' W 086°59'0 0.0
2017-Jan-17 14:28N 20°29' W 086°59'0 0.0
2017-Jan-17 13:31N 20°29' W 086°59'0 0.0
2017-Jan-17 12:28N 20°29' W 086°59'1 1.4
2017-Jan-17 11:33N 20°30' W 086°59'  
2017-Jan-11 06:13N 20°42' W 086°53'812.3
2017-Jan-11 05:34N 20°36' W 086°58'7 6.5
2017-Jan-11 04:32N 20°29' W 086°59'0 0.0
2017-Jan-11 03:32N 20°29' W 086°59'0 0.0
2017-Jan-11 02:32N 20°29' W 086°59'0 0.0
2017-Jan-11 01:26N 20°29' W 086°59'0 0.0
2017-Jan-11 00:32N 20°29' W 086°59'0 0.0
2017-Jan-10 23:29N 20°29' W 086°59'0 0.0
2017-Jan-10 22:32N 20°29' W 086°59'0 0.0
2017-Jan-10 21:32N 20°29' W 086°59'0 0.0
2017-Jan-10 20:32N 20°29' W 086°59'0 0.0
2017-Jan-10 19:32N 20°29' W 086°59'0 0.0
2017-Jan-10 18:32N 20°29' W 086°59'0 0.0
2017-Jan-10 17:32N 20°29' W 086°59'0 0.0
2017-Jan-10 16:29N 20°29' W 086°59'0 0.0
2017-Jan-10 15:32N 20°29' W 086°59'0 0.0
2017-Jan-10 14:32N 20°29' W 086°59'0 0.0
2017-Jan-10 13:32N 20°29' W 086°59'1 0.9
2017-Jan-10 12:33N 20°30' W 086°58'1 1.3
2017-Jan-10 11:33N 20°31' W 086°58'6 5.6
2017-Jan-10 10:33N 20°36' W 086°56'  
Track history (hours):
 
Tides and Currents Weather Stations Pressure Air Temp Water Temp Dewpoint Dewpoint Depression Visibility Wind Speed Wind Dir Waves Ship Positions

Berlin

Last reported at 2017-Jan-18 05:33 UTC. Time now 2017-Jan-21 15:34 UTC.
Position N 20°38' W 086°57'.

Length 140 m; draft 5 m.

Type: Ship. MMSI: 248277000.

Date/timePositionNaut miles runAvg speedWind from/ knotsBaromVisibWave heightAir tempDewpointWater temp
2017-Jan-18 05:33N 20°38' W 086°57'9 9.0
2017-Jan-18 04:31N 20°29' W 086°59'0 0.0
2017-Jan-18 03:31N 20°29' W 086°59'0 0.0
2017-Jan-18 02:31N 20°29' W 086°59'0 0.0
2017-Jan-18 01:28N 20°29' W 086°59'0 0.0
2017-Jan-18 00:31N 20°29' W 086°59'0 0.0
2017-Jan-17 23:31N 20°29' W 086°59'0 0.0
2017-Jan-17 22:31N 20°29' W 086°59'0 0.0
2017-Jan-17 21:31N 20°29' W 086°59'0 0.0
2017-Jan-17 20:31N 20°29' W 086°59'0 0.0
2017-Jan-17 19:31N 20°29' W 086°59'0 0.0
2017-Jan-17 18:28N 20°29' W 086°59'0 0.0
2017-Jan-17 17:25N 20°29' W 086°59'0 0.0
2017-Jan-17 16:28N 20°29' W 086°59'0 0.0
2017-Jan-17 15:31N 20°29' W 086°59'0 0.0
2017-Jan-17 14:28N 20°29' W 086°59'0 0.0
2017-Jan-17 13:31N 20°29' W 086°59'0 0.0
2017-Jan-17 12:28N 20°29' W 086°59'1 1.4
2017-Jan-17 11:33N 20°30' W 086°59'  
2017-Jan-11 06:13N 20°42' W 086°53'812.3
2017-Jan-11 05:34N 20°36' W 086°58'7 6.5
2017-Jan-11 04:32N 20°29' W 086°59'0 0.0
2017-Jan-11 03:32N 20°29' W 086°59'0 0.0
2017-Jan-11 02:32N 20°29' W 086°59'0 0.0
2017-Jan-11 01:26N 20°29' W 086°59'0 0.0
2017-Jan-11 00:32N 20°29' W 086°59'0 0.0
2017-Jan-10 23:29N 20°29' W 086°59'0 0.0
2017-Jan-10 22:32N 20°29' W 086°59'0 0.0
2017-Jan-10 21:32N 20°29' W 086°59'0 0.0
2017-Jan-10 20:32N 20°29' W 086°59'0 0.0
2017-Jan-10 19:32N 20°29' W 086°59'0 0.0
2017-Jan-10 18:32N 20°29' W 086°59'0 0.0
2017-Jan-10 17:32N 20°29' W 086°59'0 0.0
2017-Jan-10 16:29N 20°29' W 086°59'0 0.0
2017-Jan-10 15:32N 20°29' W 086°59'0 0.0
2017-Jan-10 14:32N 20°29' W 086°59'0 0.0
2017-Jan-10 13:32N 20°29' W 086°59'1 0.9
2017-Jan-10 12:33N 20°30' W 086°58'1 1.3
2017-Jan-10 11:33N 20°31' W 086°58'6 5.6
2017-Jan-10 10:33N 20°36' W 086°56'  

Dump ship's entire track history